Time;durP1;ratioP1;P1;durP2;ratioP2;P2;SDS_P1;SDS_P2;PMS_P1;PMS_P2;Temp;Humidity;BMP_temperature;BMP_pressure;BME280_temperature;BME280_humidity;BME280_pressure;Samples;Min_cycle;Max_cycle;Signal;HPM_P1;HPM_P2
2021/07/22 00:01:57;;;;;;;15.50;10.20;;;;;;;17.84;69.65;96712.44;5114841;28;20047;-72
2021/07/22 00:04:24;;;;;;;17.50;10.85;;;;;;;17.81;69.56;96712.38;5111834;28;20402;-74
2021/07/22 00:06:50;;;;;;;16.20;10.35;;;;;;;17.80;69.40;96716.25;5114602;28;20050;-74
2021/07/22 00:09:18;;;;;;;16.17;9.98;;;;;;;17.77;69.50;96711.47;5113869;28;20414;-74
2021/07/22 00:11:46;;;;;;;16.10;9.75;;;;;;;17.72;69.24;96704.25;5114392;28;20043;-74
2021/07/22 00:14:12;;;;;;;15.65;9.73;;;;;;;17.73;69.52;96708.63;5113909;28;20075;-74
2021/07/22 00:16:39;;;;;;;15.18;9.18;;;;;;;17.75;69.62;96706.31;5114441;28;20051;-74
2021/07/22 00:19:05;;;;;;;14.27;9.65;;;;;;;17.74;70.19;96707.47;5114092;28;20048;-74
2021/07/22 00:21:32;;;;;;;14.13;8.90;;;;;;;17.71;69.90;96702.66;5114541;28;20051;-74
2021/07/22 00:23:59;;;;;;;12.85;8.95;;;;;;;17.71;69.90;96705.41;5113904;28;20039;-71
2021/07/22 00:26:27;;;;;;;13.43;9.18;;;;;;;17.67;69.84;96704.50;5113659;28;20051;-74
2021/07/22 00:28:53;;;;;;;15.57;9.98;;;;;;;17.65;69.26;96704.06;5114101;28;20050;-74
2021/07/22 00:31:20;;;;;;;15.70;9.57;;;;;;;17.57;69.77;96703.09;5113505;28;20050;-74
2021/07/22 00:33:46;;;;;;;13.15;9.20;;;;;;;17.53;69.38;96701.38;5113877;28;20044;-74
2021/07/22 00:36:13;;;;;;;12.77;8.93;;;;;;;17.55;69.39;96699.09;5113549;28;20052;-74
2021/07/22 00:38:40;;;;;;;15.48;8.82;;;;;;;17.59;69.22;96694.44;5113946;28;20051;-74
2021/07/22 00:41:10;;;;;;;15.48;9.75;;;;;;;17.57;69.45;96694.03;5113381;28;20126;-74
2021/07/22 00:43:39;;;;;;;16.13;9.40;;;;;;;17.53;69.77;96696.69;5113744;28;20540;-72
2021/07/22 00:46:05;;;;;;;16.08;10.00;;;;;;;17.51;69.73;96704.50;5113153;28;20497;-72
2021/07/22 00:48:32;;;;;;;14.73;9.27;;;;;;;17.46;69.40;96697.31;5113647;28;20493;-72
2021/07/22 00:50:58;;;;;;;14.18;9.63;;;;;;;17.47;69.51;96696.16;5113859;28;20051;-72
2021/07/22 00:53:25;;;;;;;15.73;9.55;;;;;;;17.43;69.71;96703.50;5113197;28;20054;-73
2021/07/22 00:55:51;;;;;;;15.50;10.05;;;;;;;17.40;70.07;96703.44;5113374;28;20050;-74
2021/07/22 00:58:18;;;;;;;17.73;9.93;;;;;;;17.37;70.18;96696.66;5113101;28;20051;-74
2021/07/22 01:00:45;;;;;;;15.15;9.10;;;;;;;17.35;69.72;96690.72;5113372;28;20560;-74
2021/07/22 01:03:12;;;;;;;14.13;8.80;;;;;;;17.36;69.86;96697.81;5112747;28;20044;-72
2021/07/22 01:05:39;;;;;;;14.45;9.73;;;;;;;17.32;69.41;96702.44;5113450;28;20039;-72
2021/07/22 01:08:05;;;;;;;13.32;9.20;;;;;;;17.24;70.05;96695.16;5112755;28;20074;-73
2021/07/22 01:10:31;;;;;;;14.38;9.40;;;;;;;17.16;70.18;96694.16;5112863;28;20054;-74
2021/07/22 01:12:58;;;;;;;17.35;9.65;;;;;;;17.10;70.80;96689.25;5113103;28;20044;-72
2021/07/22 01:15:24;;;;;;;13.93;8.98;;;;;;;17.07;71.33;96692.69;5102716;28;20123;-72
2021/07/22 01:17:52;;;;;;;14.98;9.95;;;;;;;17.04;71.61;96696.19;5092773;28;20490;-72
2021/07/22 01:20:21;;;;;;;14.38;8.80;;;;;;;17.02;71.61;96690.19;5092246;28;20048;-72
2021/07/22 01:22:50;;;;;;;14.80;9.20;;;;;;;16.98;71.41;96689.31;5092795;28;20052;-72
2021/07/22 01:25:18;;;;;;;16.83;9.43;;;;;;;16.92;71.93;96689.59;5092106;28;20064;-72
2021/07/22 01:27:45;;;;;;;19.13;10.15;;;;;;;16.86;71.63;96684.66;5092350;28;20048;-72
2021/07/22 01:30:13;;;;;;;18.15;9.88;;;;;;;16.86;71.98;96685.50;5092130;28;20044;-72
2021/07/22 01:32:40;;;;;;;20.63;9.45;;;;;;;16.85;72.39;96683.88;5092750;28;20047;-72
2021/07/22 01:35:08;;;;;;;15.38;9.82;;;;;;;16.83;72.48;96680.69;5103841;28;20051;-72
2021/07/22 01:37:38;;;;;;;17.25;10.15;;;;;;;16.82;72.99;96683.78;5112926;28;20044;-73
2021/07/22 01:40:06;;;;;;;18.08;10.57;;;;;;;16.79;72.91;96685.28;5111933;28;20536;-74
2021/07/22 01:42:33;;;;;;;16.25;10.18;;;;;;;16.81;72.38;96688.50;5112516;28;20601;-72
2021/07/22 01:44:59;;;;;;;15.18;10.25;;;;;;;16.77;72.61;96692.28;5112288;28;20497;-72
2021/07/22 01:47:26;;;;;;;17.90;10.40;;;;;;;16.71;72.67;96691.72;5112136;28;20046;-72
2021/07/22 01:49:52;;;;;;;15.73;10.10;;;;;;;16.68;73.42;96692.38;5112466;28;20051;-72
2021/07/22 01:52:19;;;;;;;14.30;9.45;;;;;;;16.65;73.06;96701.31;5112230;28;20039;-72
2021/07/22 01:54:47;;;;;;;13.32;9.68;;;;;;;16.61;72.78;96700.44;5112387;28;20537;-72
2021/07/22 01:57:14;;;;;;;15.10;9.43;;;;;;;16.64;72.34;96694.22;5111983;28;20051;-72
2021/07/22 01:59:40;;;;;;;15.77;9.70;;;;;;;16.62;72.25;96691.03;5112296;28;20044;-72
2021/07/22 02:02:08;;;;;;;13.10;9.10;;;;;;;16.59;72.60;96691.72;5111867;28;20379;-71
2021/07/22 02:04:36;;;;;;;15.77;8.90;;;;;;;16.54;72.22;96692.75;5111908;28;20039;-72
2021/07/22 02:07:02;;;;;;;20.15;10.27;;;;;;;16.49;72.60;96689.47;5111685;28;20046;-72
2021/07/22 02:09:29;;;;;;;18.40;9.90;;;;;;;16.39;72.19;96688.81;5112290;28;20051;-72
2021/07/22 02:11:58;;;;;;;14.70;9.95;;;;;;;16.32;73.45;96685.84;5111979;28;20387;-72
2021/07/22 02:14:25;;;;;;;14.27;8.88;;;;;;;16.34;73.36;96686.31;5111694;28;20036;-72
2021/07/22 02:16:52;;;;;;;14.10;8.85;;;;;;;16.30;73.59;96690.91;5112133;28;20043;-71
2021/07/22 02:19:18;;;;;;;16.17;9.40;;;;;;;16.29;74.42;96688.50;5111526;28;20043;-74
2021/07/22 02:21:48;;;;;;;14.63;9.35;;;;;;;16.27;74.51;96686.06;5111280;28;20070;-72
2021/07/22 02:24:15;;;;;;;16.08;10.63;;;;;;;16.28;74.17;96687.69;5111295;28;20054;-74
2021/07/22 02:26:42;;;;;;;16.00;9.60;;;;;;;16.32;74.22;96683.09;5111698;28;20456;-74
2021/07/22 02:29:10;;;;;;;15.90;10.43;;;;;;;16.31;74.59;96689.75;5111290;28;20047;-72
2021/07/22 02:31:36;;;;;;;17.33;10.48;;;;;;;16.30;74.61;96693.66;5112003;28;20043;-74
2021/07/22 02:34:03;;;;;;;15.68;9.85;;;;;;;16.30;74.28;96685.41;5111232;28;20043;-72
2021/07/22 02:36:30;;;;;;;15.50;8.98;;;;;;;16.31;73.75;96687.00;5111698;28;20048;-73
2021/07/22 02:38:56;;;;;;;14.85;9.20;;;;;;;16.26;73.84;96684.50;5111806;28;20051;-72
2021/07/22 02:41:23;;;;;;;16.35;9.68;;;;;;;16.27;73.83;96683.34;5110866;28;20050;-72
2021/07/22 02:43:49;;;;;;;12.15;8.73;;;;;;;16.30;73.61;96685.41;5111400;28;20060;-72
2021/07/22 02:46:17;;;;;;;16.27;10.75;;;;;;;16.30;73.48;96684.59;5111159;28;20055;-72
2021/07/22 02:48:43;;;;;;;16.02;10.48;;;;;;;16.29;73.47;96686.56;5111798;28;20043;-72
2021/07/22 02:51:10;;;;;;;17.38;10.85;;;;;;;16.27;73.49;96686.06;5111179;28;20047;-72
2021/07/22 02:53:36;;;;;;;17.58;11.15;;;;;;;16.27;73.31;96690.78;5111611;28;20047;-72
2021/07/22 02:56:04;;;;;;;18.67;10.70;;;;;;;16.24;73.16;96691.50;5110824;28;20043;-72
2021/07/22 02:58:31;;;;;;;17.90;11.32;;;;;;;16.20;73.75;96694.13;5111545;28;20044;-72
2021/07/22 03:00:58;;;;;;;18.20;10.77;;;;;;;16.21;73.85;96695.72;5111607;28;20047;-73
2021/07/22 03:03:25;;;;;;;20.15;11.40;;;;;;;16.18;74.09;96699.13;5110996;28;20486;-72
2021/07/22 03:05:52;;;;;;;16.23;11.15;;;;;;;16.18;73.43;96688.16;5111203;28;20039;-72
2021/07/22 03:08:21;;;;;;;17.35;10.70;;;;;;;16.16;73.60;96702.25;5111078;28;20499;-72
2021/07/22 03:10:48;;;;;;;16.13;10.60;;;;;;;16.14;73.23;96695.50;5111342;28;20498;-72
2021/07/22 03:13:14;;;;;;;16.95;10.07;;;;;;;16.11;73.97;96707.97;5110691;28;20050;-72
2021/07/22 03:15:40;;;;;;;17.48;11.13;;;;;;;16.09;73.94;96701.22;5111236;28;20043;-72
2021/07/22 03:18:07;;;;;;;15.77;10.15;;;;;;;16.10;73.46;96698.13;5110931;28;20047;-72
2021/07/22 03:20:35;;;;;;;16.60;9.93;;;;;;;16.13;73.55;96702.94;5111485;28;20039;-72
2021/07/22 03:23:02;;;;;;;18.55;10.82;;;;;;;16.13;73.27;96702.13;5111360;28;20047;-72
2021/07/22 03:25:29;;;;;;;17.13;10.20;;;;;;;16.10;73.46;96703.63;5110782;28;20075;-73
2021/07/22 03:27:59;;;;;;;18.38;9.48;;;;;;;16.09;73.20;96704.78;5111245;28;20056;-72
2021/07/22 03:30:26;;;;;;;15.20;8.20;;;;;;;15.95;72.32;96709.03;5110918;28;20118;-72
2021/07/22 03:32:52;;;;;;;18.42;9.38;;;;;;;15.78;73.09;96719.09;5113325;28;20039;-72
2021/07/22 03:35:19;;;;;;;16.42;9.63;;;;;;;15.68;73.23;96716.78;5114497;28;20528;-72
2021/07/22 03:37:47;;;;;;;18.88;10.18;;;;;;;15.61;73.94;96706.34;5115126;28;20055;-72
2021/07/22 03:40:14;;;;;;;17.52;11.07;;;;;;;15.61;74.71;96713.78;5114381;28;20047;-73
2021/07/22 03:42:40;;;;;;;16.00;10.70;;;;;;;15.63;74.75;96708.78;5114976;28;20555;-72
2021/07/22 03:45:07;;;;;;;19.67;11.88;;;;;;;15.67;74.48;96706.97;5114531;28;20047;-72
2021/07/22 03:47:34;;;;;;;22.95;12.15;;;;;;;15.68;74.78;96714.06;5115023;28;20067;-72
2021/07/22 03:50:02;;;;;;;18.65;11.60;;;;;;;15.72;74.86;96716.91;5114837;28;20055;-72
2021/07/22 03:52:29;;;;;;;18.33;11.38;;;;;;;15.75;74.66;96725.25;5114368;28;20039;-72
2021/07/22 03:54:56;;;;;;;15.95;11.25;;;;;;;15.79;73.90;96717.94;5114811;28;20047;-72
2021/07/22 03:57:23;;;;;;;22.58;12.20;;;;;;;15.77;74.12;96722.97;5114359;28;20047;-73
2021/07/22 03:59:49;;;;;;;18.23;11.20;;;;;;;15.79;73.99;96704.22;5114711;28;20039;-72
2021/07/22 04:02:16;;;;;;;17.05;10.95;;;;;;;15.79;74.01;96715.19;5114210;28;20047;-72
2021/07/22 04:04:42;;;;;;;16.83;11.18;;;;;;;15.80;73.90;96716.78;5114340;28;20044;-72
2021/07/22 04:07:09;;;;;;;18.35;12.07;;;;;;;15.83;73.99;96720.81;5114032;28;20051;-72
2021/07/22 04:09:35;;;;;;;19.88;12.05;;;;;;;15.84;74.03;96712.22;5114256;28;20419;-72
2021/07/22 04:12:04;;;;;;;18.98;12.40;;;;;;;15.87;74.93;96721.72;5113930;28;20085;-71
2021/07/22 04:14:30;;;;;;;18.65;12.00;;;;;;;15.84;74.88;96717.72;5114340;28;20051;-72
2021/07/22 04:16:56;;;;;;;21.25;11.90;;;;;;;15.84;74.55;96728.69;5114348;28;20054;-72
2021/07/22 04:19:23;;;;;;;17.85;11.80;;;;;;;15.87;74.60;96727.22;5113697;28;20048;-72
2021/07/22 04:21:49;;;;;;;20.05;12.45;;;;;;;15.95;73.77;96728.25;5114257;28;20047;-72
2021/07/22 04:24:16;;;;;;;19.52;12.50;;;;;;;15.98;73.60;96716.59;5113544;28;20104;-72
2021/07/22 04:26:42;;;;;;;20.63;12.27;;;;;;;16.02;73.48;96725.72;5113993;28;20050;-73
2021/07/22 04:29:10;;;;;;;19.27;11.95;;;;;;;16.03;73.89;96728.13;5113870;28;20047;-72
2021/07/22 04:31:38;;;;;;;20.58;11.48;;;;;;;16.05;74.08;96728.59;5114352;28;20043;-73
2021/07/22 04:34:05;;;;;;;16.58;11.75;;;;;;;16.10;74.05;96730.31;5111973;28;20048;-72
2021/07/22 04:36:31;;;;;;;21.08;12.38;;;;;;;16.13;73.69;96724.94;5113846;28;20093;-72
2021/07/22 04:38:58;;;;;;;18.77;10.88;;;;;;;16.22;72.94;96732.22;5113897;28;20048;-72
2021/07/22 04:41:24;;;;;;;21.05;11.27;;;;;;;16.16;72.56;96728.91;5113367;28;20643;-72
2021/07/22 04:43:50;;;;;;;21.55;12.05;;;;;;;16.13;73.49;96740.59;5113158;28;20046;-72
2021/07/22 04:46:18;;;;;;;24.15;12.45;;;;;;;16.13;73.54;96741.41;5113205;28;20066;-73
2021/07/22 04:48:45;;;;;;;18.08;12.50;;;;;;;16.11;72.69;96737.41;5113490;28;20047;-73
2021/07/22 04:51:11;;;;;;;19.38;11.38;;;;;;;16.10;72.39;96735.78;5113138;28;20047;-72
2021/07/22 04:53:38;;;;;;;21.77;11.85;;;;;;;16.07;72.44;96736.47;5113881;28;20051;-72
2021/07/22 04:56:04;;;;;;;23.23;11.95;;;;;;;16.04;72.98;96743.47;5113088;28;20058;-72
2021/07/22 04:58:31;;;;;;;17.40;12.43;;;;;;;16.11;73.24;96742.88;5113687;28;20517;-72
2021/07/22 05:00:57;;;;;;;23.55;12.48;;;;;;;16.18;73.81;96735.69;5113589;28;20050;-73
2021/07/22 05:03:25;;;;;;;25.50;12.07;;;;;;;16.20;72.12;96745.53;5112782;28;20047;-72
2021/07/22 05:05:52;;;;;;;20.05;11.90;;;;;;;16.20;72.47;96745.53;5113063;28;20047;-72
2021/07/22 05:08:18;;;;;;;19.48;11.10;;;;;;;16.20;72.89;96737.28;5112651;28;20517;-72
2021/07/22 05:10:44;;;;;;;19.63;12.25;;;;;;;16.17;72.65;96725.81;5113367;28;20039;-71
2021/07/22 05:13:12;;;;;;;18.10;12.13;;;;;;;16.23;73.14;96731.88;5112512;28;20066;-71
2021/07/22 05:15:39;;;;;;;17.55;11.13;;;;;;;16.31;73.25;96732.91;5112734;28;20044;-72
2021/07/22 05:18:05;;;;;;;22.10;12.07;;;;;;;16.34;73.31;96729.47;5111690;28;20054;-72
2021/07/22 05:20:33;;;;;;;21.38;12.38;;;;;;;16.37;73.07;96724.06;5111579;28;20051;-72
2021/07/22 05:23:00;;;;;;;19.60;11.85;;;;;;;16.41;72.88;96729.69;5112497;28;20410;-72
2021/07/22 05:25:27;;;;;;;19.40;11.68;;;;;;;16.43;72.93;96728.19;5112323;28;20486;-72
2021/07/22 05:27:53;;;;;;;20.98;12.27;;;;;;;16.49;73.20;96725.19;5112784;28;20035;-72
2021/07/22 05:30:20;;;;;;;21.02;12.05;;;;;;;16.55;73.63;96726.56;5112396;28;20051;-74
2021/07/22 05:32:46;;;;;;;19.50;12.48;;;;;;;16.63;73.10;96728.38;5112699;28;20051;-72
2021/07/22 05:35:13;;;;;;;19.48;11.68;;;;;;;16.70;73.21;96736.81;5112103;28;20048;-72
2021/07/22 05:37:40;;;;;;;22.02;11.60;;;;;;;16.76;72.84;96732.75;5112741;28;20055;-72
2021/07/22 05:40:09;;;;;;;25.00;12.60;;;;;;;16.86;73.24;96729.50;5112054;28;20063;-72
2021/07/22 05:42:35;;;;;;;17.77;11.23;;;;;;;16.94;73.33;96730.47;5112892;28;20036;-72
2021/07/22 05:45:02;;;;;;;18.98;11.90;;;;;;;16.99;72.39;96732.19;5112310;28;20387;-72
2021/07/22 05:47:28;;;;;;;22.13;12.13;;;;;;;17.03;71.92;96733.91;5112191;28;20040;-72
2021/07/22 05:49:54;;;;;;;18.42;11.85;;;;;;;17.09;72.13;96731.69;5112294;28;20422;-72
2021/07/22 05:52:21;;;;;;;16.30;10.75;;;;;;;17.16;72.56;96731.88;5111976;28;20054;-72
2021/07/22 05:54:49;;;;;;;17.48;12.23;;;;;;;17.20;71.75;96735.53;5112454;28;20043;-72
2021/07/22 05:57:15;;;;;;;19.92;11.75;;;;;;;17.27;72.13;96738.47;5110932;28;20517;-72
2021/07/22 05:59:42;;;;;;;19.02;12.02;;;;;;;17.31;70.84;96728.34;5112277;28;20515;-72
2021/07/22 06:02:08;;;;;;;18.73;12.00;;;;;;;17.35;71.79;96734.75;5111507;28;20047;-72
2021/07/22 06:04:35;;;;;;;21.25;12.50;;;;;;;17.38;71.28;96728.56;5112224;28;20043;-73
2021/07/22 06:07:01;;;;;;;21.42;12.30;;;;;;;17.42;71.44;96729.44;5112217;28;20533;-72
2021/07/22 06:09:28;;;;;;;24.58;13.15;;;;;;;17.48;71.34;96728.03;5112006;28;20047;-72
2021/07/22 06:11:56;;;;;;;19.58;12.00;;;;;;;17.59;72.23;96722.00;5112200;28;20085;-72
2021/07/22 06:14:22;;;;;;;20.42;11.68;;;;;;;17.69;72.30;96726.97;5110463;28;20056;-72
2021/07/22 06:16:49;;;;;;;21.13;13.55;;;;;;;17.77;70.82;96726.03;5091698;28;20071;-72
2021/07/22 06:19:15;;;;;;;20.35;12.65;;;;;;;17.88;71.58;96729.84;5091025;28;20051;-72
2021/07/22 06:21:42;;;;;;;19.60;12.75;;;;;;;17.97;69.86;96727.72;5091504;28;20044;-72
2021/07/22 06:24:09;;;;;;;21.15;12.45;;;;;;;18.02;70.47;96739.63;5091045;28;20498;-73
2021/07/22 06:26:36;;;;;;;20.20;12.90;;;;;;;18.12;71.35;96739.09;5091160;28;20036;-73
2021/07/22 06:29:05;;;;;;;17.40;12.02;;;;;;;18.24;72.03;96734.25;5090914;28;20048;-73
2021/07/22 06:31:31;;;;;;;19.58;12.27;;;;;;;18.33;71.04;96731.31;5110521;28;20048;-73
2021/07/22 06:33:58;;;;;;;23.80;13.00;;;;;;;18.40;70.07;96723.19;5111565;28;20519;-73
2021/07/22 06:36:24;;;;;;;20.83;12.27;;;;;;;18.49;68.91;96732.09;5110930;28;20442;-73
2021/07/22 06:38:51;;;;;;;19.52;11.73;;;;;;;18.61;69.50;96730.34;5111892;28;20406;-73
2021/07/22 06:41:20;;;;;;;21.15;13.05;;;;;;;18.69;68.94;96730.19;5110940;28;20047;-72
2021/07/22 06:43:46;;;;;;;20.17;12.68;;;;;;;18.74;68.25;96732.66;5111458;28;20063;-73
2021/07/22 06:46:14;;;;;;;19.38;12.27;;;;;;;18.84;68.09;96735.97;5110681;28;20048;-72
2021/07/22 06:48:41;;;;;;;20.65;12.55;;;;;;;18.87;68.07;96738.81;5111449;28;20061;-72
2021/07/22 06:51:08;;;;;;;20.48;12.23;;;;;;;18.93;68.14;96739.34;5110933;28;20551;-72
2021/07/22 06:53:34;;;;;;;18.60;12.65;;;;;;;18.97;68.66;96732.72;5111352;28;20043;-73
2021/07/22 06:56:02;;;;;;;17.67;12.88;;;;;;;19.04;69.03;96741.16;5111652;28;20055;-72
2021/07/22 06:58:29;;;;;;;18.40;13.05;;;;;;;19.11;68.75;96736.97;5110920;28;20043;-72
2021/07/22 07:00:55;;;;;;;20.40;12.32;;;;;;;19.19;68.20;96730.38;5111295;28;20046;-73
2021/07/22 07:03:23;;;;;;;27.33;19.65;;;;;;;19.29;68.61;96735.31;5110703;28;20058;-73
2021/07/22 07:05:50;;;;;;;20.15;13.02;;;;;;;19.40;68.84;96733.56;5111242;28;20048;-72
2021/07/22 07:08:16;;;;;;;18.65;12.27;;;;;;;19.50;68.01;96730.19;5113605;28;20134;-73
2021/07/22 07:10:43;;;;;;;17.65;11.48;;;;;;;19.59;66.81;96730.00;5115408;28;20046;-73
2021/07/22 07:13:09;;;;;;;19.17;12.82;;;;;;;19.65;66.23;96734.06;5114870;28;20048;-73
2021/07/22 07:15:36;;;;;;;19.27;12.30;;;;;;;19.68;66.39;96738.03;5115098;28;20046;-73
2021/07/22 07:18:03;;;;;;;18.80;12.13;;;;;;;19.77;67.00;96733.06;5114771;28;20047;-77
2021/07/22 07:20:31;;;;;;;21.00;13.02;;;;;;;19.90;66.72;96731.72;5113697;28;20520;-76
2021/07/22 07:22:58;;;;;;;22.27;12.45;;;;;;;20.00;66.25;96731.09;5114918;28;20510;-76
2021/07/22 07:25:25;;;;;;;19.52;12.60;;;;;;;20.08;66.28;96732.78;5114502;28;20063;-75
2021/07/22 07:27:51;;;;;;;24.17;12.77;;;;;;;20.19;65.82;96732.16;5114305;28;20440;-77
2021/07/22 07:30:19;;;;;;;17.20;12.23;;;;;;;20.25;64.03;96734.25;5114278;28;20096;-77
2021/07/22 07:32:46;;;;;;;18.67;12.00;;;;;;;20.33;64.78;96735.16;5114840;28;20140;-76
2021/07/22 07:35:13;;;;;;;17.63;11.68;;;;;;;20.41;64.76;96722.22;5114157;28;20036;-76
2021/07/22 07:37:41;;;;;;;17.70;11.27;;;;;;;20.49;64.59;96719.22;5114664;28;20043;-75
2021/07/22 07:40:09;;;;;;;16.38;11.20;;;;;;;20.59;62.86;96718.56;5114290;28;20077;-77
2021/07/22 07:42:36;;;;;;;18.23;11.35;;;;;;;20.68;63.58;96714.75;5114566;28;20543;-75
2021/07/22 07:45:04;;;;;;;16.38;11.32;;;;;;;20.76;62.44;96717.22;5114041;28;20044;-75
2021/07/22 07:47:30;;;;;;;18.30;11.10;;;;;;;20.87;61.39;96711.81;5114091;28;20043;-77
2021/07/22 07:49:57;;;;;;;15.07;10.93;;;;;;;20.95;61.82;96713.50;5114318;28;20188;-75
2021/07/22 07:52:23;;;;;;;16.38;11.57;;;;;;;21.04;61.69;96714.03;5113876;28;20040;-75
2021/07/22 07:54:52;;;;;;;19.10;11.20;;;;;;;21.18;60.31;96705.06;5110236;28;20132;-78
2021/07/22 07:57:18;;;;;;;16.67;10.63;;;;;;;21.30;61.79;96712.38;5113646;28;20075;-77
2021/07/22 07:59:46;;;;;;;18.27;11.50;;;;;;;21.46;62.58;96712.13;5113929;28;20047;-77
2021/07/22 08:02:14;;;;;;;16.30;10.80;;;;;;;21.55;60.33;96715.38;5114016;28;20100;-75
2021/07/22 08:04:41;;;;;;;17.90;10.55;;;;;;;21.71;60.54;96715.13;5113760;28;20054;-76
2021/07/22 08:07:07;;;;;;;17.15;10.88;;;;;;;21.92;60.93;96707.00;5113348;28;20050;-75
2021/07/22 08:09:34;;;;;;;16.60;10.43;;;;;;;22.20;59.54;96709.25;5114139;28;20043;-78
2021/07/22 08:12:02;;;;;;;15.77;10.80;;;;;;;23.15;58.51;96708.19;5113933;28;20050;-77
2021/07/22 08:14:29;;;;;;;15.18;10.30;;;;;;;24.71;53.53;96711.50;5113704;28;20062;-77
2021/07/22 08:16:56;;;;;;;16.48;10.25;;;;;;;25.99;50.00;96712.88;5113627;28;20130;-76
2021/07/22 08:19:22;;;;;;;17.23;10.25;;;;;;;26.92;46.73;96714.81;5112282;28;20063;-77
2021/07/22 08:21:49;;;;;;;17.55;9.65;;;;;;;27.69;50.23;96709.44;5113750;28;20126;-79
2021/07/22 08:24:15;;;;;;;18.38;9.82;;;;;;;28.58;44.54;96715.66;5113490;28;20500;-76
2021/07/22 08:26:42;;;;;;;15.02;9.55;;;;;;;29.28;40.88;96721.13;5113225;28;20040;-77
2021/07/22 08:29:10;;;;;;;19.42;10.00;;;;;;;29.76;38.90;96714.09;5112895;28;20063;-77
2021/07/22 08:31:37;;;;;;;16.48;9.02;;;;;;;30.18;38.85;96713.56;5113385;28;20501;-78
2021/07/22 08:34:03;;;;;;;12.52;8.48;;;;;;;30.53;38.08;96714.66;5112920;28;20058;-77
2021/07/22 08:36:30;;;;;;;11.85;8.27;;;;;;;30.78;35.74;96714.81;5113600;28;20047;-78
2021/07/22 08:38:56;;;;;;;13.73;8.75;;;;;;;31.29;36.00;96708.63;5113154;28;20058;-78
2021/07/22 08:41:23;;;;;;;13.82;8.30;;;;;;;31.47;33.82;96710.88;5113182;28;20051;-77
2021/07/22 08:43:52;;;;;;;13.27;8.82;;;;;;;31.58;33.93;96714.16;5113327;28;20055;-77
2021/07/22 08:46:20;;;;;;;13.75;9.07;;;;;;;31.73;34.87;96712.50;5112505;28;20122;-77
2021/07/22 08:48:46;;;;;;;14.38;8.65;;;;;;;31.94;36.30;96703.41;5113002;28;20043;-76
2021/07/22 08:51:13;;;;;;;13.50;8.63;;;;;;;32.29;33.47;96711.94;5112844;28;20130;-75
2021/07/22 08:53:41;;;;;;;13.10;8.85;;;;;;;32.36;31.43;96700.44;5112561;28;20043;-76
2021/07/22 08:56:08;;;;;;;15.23;8.90;;;;;;;32.57;33.31;96703.78;5112559;28;20055;-77
2021/07/22 08:58:38;;;;;;;14.00;8.23;;;;;;;32.72;32.64;96704.88;5112716;28;20547;-75
2021/07/22 09:01:08;;;;;;;13.05;9.05;;;;;;;32.72;32.44;96699.22;5112441;28;20059;-76
2021/07/22 09:03:35;;;;;;;12.40;8.95;;;;;;;32.78;34.24;96697.41;5113039;28;20518;-77
2021/07/22 09:06:13;;;;;;;21.45;9.05;;;;;;;33.01;33.57;96703.91;5112130;28;20379;-72
2021/07/22 09:08:39;;;;;;;14.07;8.02;;;;;;;33.28;31.05;96704.09;5112854;28;20070;-77
2021/07/22 09:11:06;;;;;;;13.35;8.82;;;;;;;33.64;29.67;96699.94;5112033;28;20048;-78
2021/07/22 09:13:32;;;;;;;13.82;8.63;;;;;;;33.53;29.98;96702.38;5112481;28;20066;-76
2021/07/22 09:15:59;;;;;;;12.63;8.75;;;;;;;33.50;29.75;96696.41;5112705;28;20051;-79
2021/07/22 09:18:31;;;;;;;11.43;7.72;;;;;;;33.51;30.76;96697.19;5111884;28;20472;-77
2021/07/22 09:21:17;;;;;;;12.50;7.83;;;;;;;33.42;29.94;96689.47;5112760;28;20469;-79
2021/07/22 09:24:03;;;;;;;12.82;8.40;;;;;;;33.47;31.27;96696.56;5111641;28;20815;-78
2021/07/22 09:26:31;;;;;;;15.93;8.55;;;;;;;33.65;29.94;96695.84;5111640;28;20044;-78
2021/07/22 09:29:04;;;;;;;15.38;8.32;;;;;;;33.81;30.89;96689.19;5112200;28;20097;-78
2021/07/22 09:31:30;;;;;;;16.15;9.18;;;;;;;33.98;28.65;96691.31;5111562;28;20047;-78
2021/07/22 09:33:57;;;;;;;12.75;7.95;;;;;;;33.88;31.46;96680.41;5112251;28;20044;-77
2021/07/22 09:36:35;;;;;;;12.50;7.78;;;;;;;33.77;29.62;96686.50;5111725;28;20122;-77
2021/07/22 09:39:24;;;;;;;15.10;8.02;;;;;;;33.36;28.76;96685.66;5111600;28;20491;-74
2021/07/22 09:42:01;;;;;;;12.52;7.60;;;;;;;32.92;28.38;96680.00;5112058;28;20050;-77
2021/07/22 09:44:33;;;;;;;12.23;7.18;;;;;;;32.54;31.58;96673.72;5111813;28;20046;-77
2021/07/22 09:47:00;;;;;;;15.90;7.95;;;;;;;32.21;33.17;96676.78;5112348;28;20501;-75
2021/07/22 09:49:32;;;;;;;10.68;7.68;;;;;;;31.90;32.82;96673.81;5111414;28;20040;-77
2021/07/22 09:52:02;;;;;;;14.30;7.72;;;;;;;30.99;30.39;96667.66;5111994;28;20510;-74
2021/07/22 09:54:36;;;;;;;12.60;8.25;;;;;;;30.47;32.34;96677.09;5111873;28;20063;-75
2021/07/22 09:57:04;;;;;;;12.43;7.70;;;;;;;30.05;34.67;96668.50;5111557;28;20048;-75
2021/07/22 09:59:31;;;;;;;13.35;7.70;;;;;;;29.77;36.33;96673.56;5111609;28;20048;-78
2021/07/22 10:02:02;;;;;;;16.08;8.55;;;;;;;29.54;35.08;96668.88;5111772;28;20097;-77
2021/07/22 10:04:31;;;;;;;16.88;8.35;;;;;;;29.26;35.31;96663.88;5111539;28;20044;-79
2021/07/22 10:07:01;;;;;;;17.15;8.82;;;;;;;29.19;36.71;96673.25;5111545;28;20128;-76
2021/07/22 10:09:35;;;;;;;9.75;7.15;;;;;;;29.14;36.33;96668.16;5110932;28;20049;-79
2021/07/22 10:12:03;;;;;;;14.45;8.15;;;;;;;29.00;38.51;96662.84;5111547;28;20082;-78
2021/07/22 10:14:31;;;;;;;12.10;7.88;;;;;;;28.97;36.11;96663.69;5111518;28;20411;-78
2021/07/22 10:17:01;;;;;;;13.13;7.68;;;;;;;29.00;35.31;96657.22;5111593;28;20074;-78
2021/07/22 10:19:29;;;;;;;15.10;8.05;;;;;;;28.85;34.80;96653.88;5110875;28;20415;-77
2021/07/22 10:21:57;;;;;;;13.00;8.07;;;;;;;28.86;35.52;96656.25;5111687;28;20071;-76
2021/07/22 10:24:26;;;;;;;11.55;8.07;;;;;;;28.97;35.28;96658.06;5111136;28;20506;-76
2021/07/22 10:26:53;;;;;;;19.25;8.02;;;;;;;28.94;32.12;96659.75;5111153;28;20071;-76
2021/07/22 10:29:20;;;;;;;14.80;8.02;;;;;;;28.54;32.84;96658.91;5110539;28;20043;-76
2021/07/22 10:31:50;;;;;;;15.60;7.93;;;;;;;28.43;39.30;96652.72;5111455;28;20046;-77
2021/07/22 10:34:19;;;;;;;14.73;7.85;;;;;;;28.49;35.22;96651.00;5110717;28;20067;-75
2021/07/22 10:36:48;;;;;;;16.98;8.88;;;;;;;28.54;36.32;96650.50;5111165;28;20442;-74
2021/07/22 10:39:15;;;;;;;15.50;7.95;;;;;;;28.55;34.74;96654.88;5110409;28;20374;-75
2021/07/22 10:41:43;;;;;;;14.80;8.15;;;;;;;28.58;33.72;96649.22;5110549;28;20048;-76
2021/07/22 10:44:32;;;;;;;15.98;8.30;;;;;;;28.48;37.61;96649.41;5110742;28;20054;-75
2021/07/22 10:47:00;;;;;;;18.67;8.48;;;;;;;28.53;36.15;96646.13;5090705;28;20114;-75
2021/07/22 10:49:38;;;;;;;14.77;8.10;;;;;;;28.48;31.93;96643.81;5090323;28;20048;-75
2021/07/22 10:52:05;;;;;;;11.98;7.95;;;;;;;28.36;36.43;96647.25;5090123;28;20545;-77
2021/07/22 10:54:52;;;;;;;13.60;7.80;;;;;;;28.43;37.19;96644.31;5090888;28;20047;-77
2021/07/22 10:57:41;;;;;;;19.50;9.13;;;;;;;28.61;40.00;96641.97;5090244;28;20470;-77
2021/07/22 11:00:10;;;;;;;16.95;7.75;;;;;;;28.70;36.01;96644.97;5085326;28;20072;-77
2021/07/22 11:02:44;;;;;;;12.90;7.35;;;;;;;28.73;36.95;96643.34;5090689;28;20406;-77
2021/07/22 11:05:12;;;;;;;14.55;7.68;;;;;;;28.68;36.10;96647.44;5102859;28;20048;-77
2021/07/22 11:07:38;;;;;;;13.13;8.07;;;;;;;28.74;36.13;96640.09;5110907;28;20048;-74
2021/07/22 11:10:05;;;;;;;25.17;9.02;;;;;;;28.80;33.53;96643.19;5110198;28;20051;-77
2021/07/22 11:12:48;;;;;;;15.05;8.65;;;;;;;28.75;36.68;96640.88;5110755;28;20043;-78
2021/07/22 11:15:59;;;;;;;14.85;9.00;;;;;;;28.82;36.05;96640.75;5110648;28;20128;-80
2021/07/22 11:18:48;;;;;;;15.75;8.75;;;;;;;28.84;35.04;96633.47;5110123;28;20522;-78
2021/07/22 11:21:18;;;;;;;13.48;8.15;;;;;;;28.82;34.92;96633.13;5110280;28;20047;-78
2021/07/22 11:23:55;;;;;;;13.88;9.05;;;;;;;28.70;36.41;96632.97;5110750;28;20071;-77
2021/07/22 11:26:22;;;;;;;13.45;7.90;;;;;;;28.78;35.63;96629.59;5110070;28;20048;-77